IVAO ES Tour IFR-A 2013 Etapa 25

IVAO ES Tour IFR-A 2013 Etapa 25

Asturias ( LEAS ) – IBIZA ( LEIB )

Datos generales del vuelo
Fecha 16-12-2013 Avión  B737-800 winglets
Ruta AMAKA XARIS UM190 BLV UM601 BCN UZ174 CORDA Nivel de vuelo FL360
Origen LEAS Destino LEIB
Velocidad M0.793 Distancia 560Nm
Distancia real 436Nm ETE 01:20
ETA 10:40Z FOB 02:45
Hora salida 09:20Z Hora llegada 10:45Z
Pax 151 TOW 69427Kg
MTOW  78471Kg Fuel 7675Kg
Fuel utilizado 4259Kg ZFW 61750Kg
Peso carga 8477Kg Peso pasaje 11860Kg
V1 133Knots Vr 143Knots
V2 152Knots Vref 149Knots
 Velocidad vertical toma
95,4 ft/m  

 

Datos LEAS
Metar: LEAS 160900Z VRB01KT CAVOK 08/01 Q1024 NOSIG
Pista Activa: 11
Salida: AMAKA1E

Datos LEIB
Metar: LEIB 161000Z 00000KT 9999 FEW020 14/11 Q1033 NOSIG
Pista Activa: 24
Llegada: CORDA3N
App: ILS 24

IVAO ES Tour IFR-A 2013 Etapa 24

IVAO ES Tour IFR-A 2013 Etapa 24

Girona ( LEGE ) – Asturias ( LEAS )

Datos generales del vuelo
 Fecha 14-12-2013  Avión  B737-800 winglets
 Ruta MAMUK B31 SLL UT410 VIBOK UM601 BLV UM190 XARIS AMAKA  Nivel de vuelo FL310
 Origen LEGE  Destino LEAS
 Velocidad M0.780  Distancia 442Nm
 Distancia real 400Nm ETE 01:10
 ETA 10:40Z  FOB 02:35
 Hora salida 09:30Z Hora llegada 11:00Z
 Pax 145 TOW 67489Kg
 MTOW  78471Kg Fuel 7049Kg
 Fuel utilizado 3885Kg ZFW 60440Kg
Peso carga 8291Kg Peso pasaje 10736Kg
V1 131Knots Vr 141Knots
 V2 150Knots  Vref 147Knots
 Velocidad vertical toma
123,8 ft/m  

 

Datos LEGE
Metar: LEGE 140930Z VRB02KT CAVOK 08/06 Q1031
Pista Activa: 20
Salida: MAMUK1H

Datos LEAS
Metar: LEAS 121400Z VRB01KT CAVOK 15/04 Q1024 NOSIG ( IVAO NETWORK ERROR)
Pista Activa: 29
Llegada: AMAKA1C
App: ILS Z 29